<?xml version="1.0" encoding="UTF-8" standalone="no" ?>
<gpx xmlns="http://www.topografix.com/GPX/1/1" xmlns:xsi="http://www.w3.org/2001/XMLSchema-instance" xsi:schemaLocation="http://www.topografix.com/GPX/1/1 http://www.topografix.com/GPX/1/1/gpx.xsd" version="1.1" creator="VisuGPX - https://www.visugpx.com">
  <metadata>
    <name>Tour d'Europe: faux départ 154</name>
    <desc><![CDATA[Faux départ 154]]></desc>
  </metadata>
  <trk>
    <name><![CDATA[Tour d'Europe: faux départ 154]]></name>
    <trkseg>
      <trkpt lat="53.84133" lon="22.9732">
        <ele>159.373189</ele>
        <time>2020-11-29T08:39:12.157Z</time>
      </trkpt>
      <trkpt lat="53.84138" lon="22.97306">
        <ele>159.373189</ele>
        <time>2020-11-29T08:39:16.146Z</time>
      </trkpt>
      <trkpt lat="53.84131" lon="22.97259">
        <ele>159.373189</ele>
        <time>2020-11-29T08:40:59.143Z</time>
      </trkpt>
      <trkpt lat="53.84122" lon="22.97249">
        <ele>159.373189</ele>
        <time>2020-11-29T08:41:05.135Z</time>
      </trkpt>
      <trkpt lat="53.84112" lon="22.97246">
        <ele>159.373189</ele>
        <time>2020-11-29T08:41:09.170Z</time>
      </trkpt>
      <trkpt lat="53.84105" lon="22.97254">
        <ele>159.373189</ele>
        <time>2020-11-29T08:41:13.173Z</time>
      </trkpt>
      <trkpt lat="53.841" lon="22.9727">
        <ele>159.373189</ele>
        <time>2020-11-29T08:41:17.177Z</time>
      </trkpt>
      <trkpt lat="53.84094" lon="22.97282">
        <ele>159.373189</ele>
        <time>2020-11-29T08:41:21.133Z</time>
      </trkpt>
      <trkpt lat="53.84088" lon="22.97296">
        <ele>159.329775</ele>
        <time>2020-11-29T08:41:26.149Z</time>
      </trkpt>
      <trkpt lat="53.84079" lon="22.973">
        <ele>159.282815</ele>
        <time>2020-11-29T08:41:30.158Z</time>
      </trkpt>
      <trkpt lat="53.8407" lon="22.97294">
        <ele>159.232321</ele>
        <time>2020-11-29T08:41:34.158Z</time>
      </trkpt>
      <trkpt lat="53.84061" lon="22.97285">
        <ele>159.178141</ele>
        <time>2020-11-29T08:41:39.154Z</time>
      </trkpt>
      <trkpt lat="53.84052" lon="22.97274">
        <ele>159.122055</ele>
        <time>2020-11-29T08:41:44.159Z</time>
      </trkpt>
      <trkpt lat="53.84045" lon="22.97263">
        <ele>159.07339</ele>
        <time>2020-11-29T08:41:49.157Z</time>
      </trkpt>
      <trkpt lat="53.84035" lon="22.97254">
        <ele>159.015075</ele>
        <time>2020-11-29T08:41:54.146Z</time>
      </trkpt>
      <trkpt lat="53.84025" lon="22.97254">
        <ele>158.960206</ele>
        <time>2020-11-29T08:41:58.172Z</time>
      </trkpt>
      <trkpt lat="53.84018" lon="22.97266">
        <ele>158.909477</ele>
        <time>2020-11-29T08:42:01.155Z</time>
      </trkpt>
      <trkpt lat="53.8401" lon="22.97285">
        <ele>158.839246</ele>
        <time>2020-11-29T08:42:04.168Z</time>
      </trkpt>
      <trkpt lat="53.84004" lon="22.97299">
        <ele>158.784409</ele>
        <time>2020-11-29T08:42:06.137Z</time>
      </trkpt>
      <trkpt lat="53.83997" lon="22.97312">
        <ele>158.730817</ele>
        <time>2020-11-29T08:42:08.136Z</time>
      </trkpt>
      <trkpt lat="53.8399" lon="22.97323">
        <ele>158.682302</ele>
        <time>2020-11-29T08:42:10.142Z</time>
      </trkpt>
      <trkpt lat="53.83981" lon="22.97338">
        <ele>158.6156</ele>
        <time>2020-11-29T08:42:13.153Z</time>
      </trkpt>
      <trkpt lat="53.83973" lon="22.97353">
        <ele>158.555273</ele>
        <time>2020-11-29T08:42:16.145Z</time>
      </trkpt>
      <trkpt lat="53.83966" lon="22.97368">
        <ele>158.496891</ele>
        <time>2020-11-29T08:42:19.149Z</time>
      </trkpt>
      <trkpt lat="53.83959" lon="22.97384">
        <ele>158.454553</ele>
        <time>2020-11-29T08:42:22.168Z</time>
      </trkpt>
      <trkpt lat="53.83952" lon="22.97399">
        <ele>158.560752</ele>
        <time>2020-11-29T08:42:25.159Z</time>
      </trkpt>
      <trkpt lat="53.83945" lon="22.97413">
        <ele>158.666768</ele>
        <time>2020-11-29T08:42:28.138Z</time>
      </trkpt>
      <trkpt lat="53.8394" lon="22.97428">
        <ele>158.761841</ele>
        <time>2020-11-29T08:42:31.130Z</time>
      </trkpt>
      <trkpt lat="53.83931" lon="22.97436">
        <ele>158.860576</ele>
        <time>2020-11-29T08:42:37.148Z</time>
      </trkpt>
      <trkpt lat="53.8392" lon="22.97427">
        <ele>158.971842</ele>
        <time>2020-11-29T08:42:41.147Z</time>
      </trkpt>
      <trkpt lat="53.83913" lon="22.97417">
        <ele>159.062355</ele>
        <time>2020-11-29T08:42:44.175Z</time>
      </trkpt>
      <trkpt lat="53.83904" lon="22.97406">
        <ele>159.165717</ele>
        <time>2020-11-29T08:42:47.171Z</time>
      </trkpt>
      <trkpt lat="53.83894" lon="22.97394">
        <ele>159.282391</ele>
        <time>2020-11-29T08:42:50.146Z</time>
      </trkpt>
      <trkpt lat="53.83882" lon="22.97381">
        <ele>159.411397</ele>
        <time>2020-11-29T08:42:53.134Z</time>
      </trkpt>
      <trkpt lat="53.83873" lon="22.97373">
        <ele>159.508716</ele>
        <time>2020-11-29T08:42:55.175Z</time>
      </trkpt>
      <trkpt lat="53.83865" lon="22.97364">
        <ele>159.60226</ele>
        <time>2020-11-29T08:42:57.155Z</time>
      </trkpt>
      <trkpt lat="53.83857" lon="22.97355">
        <ele>159.689955</ele>
        <time>2020-11-29T08:42:59.158Z</time>
      </trkpt>
      <trkpt lat="53.8385" lon="22.97345">
        <ele>159.780066</ele>
        <time>2020-11-29T08:43:01.147Z</time>
      </trkpt>
      <trkpt lat="53.83842" lon="22.97336">
        <ele>159.872627</ele>
        <time>2020-11-29T08:43:03.145Z</time>
      </trkpt>
      <trkpt lat="53.83833" lon="22.97327">
        <ele>159.963345</ele>
        <time>2020-11-29T08:43:05.155Z</time>
      </trkpt>
      <trkpt lat="53.83822" lon="22.97315">
        <ele>160.089065</ele>
        <time>2020-11-29T08:43:08.183Z</time>
      </trkpt>
      <trkpt lat="53.83812" lon="22.97304">
        <ele>160.109158</ele>
        <time>2020-11-29T08:43:11.158Z</time>
      </trkpt>
      <trkpt lat="53.83803" lon="22.97293">
        <ele>160.052187</ele>
        <time>2020-11-29T08:43:14.163Z</time>
      </trkpt>
      <trkpt lat="53.83793" lon="22.97283">
        <ele>159.994204</ele>
        <time>2020-11-29T08:43:17.175Z</time>
      </trkpt>
      <trkpt lat="53.83784" lon="22.97272">
        <ele>159.936447</ele>
        <time>2020-11-29T08:43:20.167Z</time>
      </trkpt>
      <trkpt lat="53.83774" lon="22.9726">
        <ele>159.872461</ele>
        <time>2020-11-29T08:43:23.183Z</time>
      </trkpt>
      <trkpt lat="53.83764" lon="22.97249">
        <ele>159.810941</ele>
        <time>2020-11-29T08:43:26.161Z</time>
      </trkpt>
      <trkpt lat="53.83755" lon="22.97235">
        <ele>159.750634</ele>
        <time>2020-11-29T08:43:29.145Z</time>
      </trkpt>
      <trkpt lat="53.83748" lon="22.97218">
        <ele>159.689144</ele>
        <time>2020-11-29T08:43:32.157Z</time>
      </trkpt>
      <trkpt lat="53.83746" lon="22.97202">
        <ele>159.640622</ele>
        <time>2020-11-29T08:43:34.152Z</time>
      </trkpt>
      <trkpt lat="53.83741" lon="22.97188">
        <ele>159.592829</ele>
        <time>2020-11-29T08:43:36.139Z</time>
      </trkpt>
      <trkpt lat="53.83733" lon="22.97181">
        <ele>159.545745</ele>
        <time>2020-11-29T08:43:38.156Z</time>
      </trkpt>
      <trkpt lat="53.83723" lon="22.97178">
        <ele>159.496228</ele>
        <time>2020-11-29T08:43:40.140Z</time>
      </trkpt>
      <trkpt lat="53.8371" lon="22.97177">
        <ele>159.429523</ele>
        <time>2020-11-29T08:43:43.163Z</time>
      </trkpt>
      <trkpt lat="53.83701" lon="22.97174">
        <ele>159.382061</ele>
        <time>2020-11-29T08:43:45.184Z</time>
      </trkpt>
      <trkpt lat="53.83689" lon="22.97176">
        <ele>159.322285</ele>
        <time>2020-11-29T08:43:48.151Z</time>
      </trkpt>
      <trkpt lat="53.83681" lon="22.97191">
        <ele>159.262522</ele>
        <time>2020-11-29T08:43:51.160Z</time>
      </trkpt>
      <trkpt lat="53.83673" lon="22.97206">
        <ele>159.174493</ele>
        <time>2020-11-29T08:43:54.142Z</time>
      </trkpt>
      <trkpt lat="53.83661" lon="22.97213">
        <ele>159.051155</ele>
        <time>2020-11-29T08:43:57.182Z</time>
      </trkpt>
      <trkpt lat="53.83652" lon="22.97218">
        <ele>158.963417</ele>
        <time>2020-11-29T08:43:59.151Z</time>
      </trkpt>
      <trkpt lat="53.83641" lon="22.97226">
        <ele>158.849376</ele>
        <time>2020-11-29T08:44:02.207Z</time>
      </trkpt>
      <trkpt lat="53.83631" lon="22.97231">
        <ele>158.741919</ele>
        <time>2020-11-29T08:44:05.144Z</time>
      </trkpt>
      <trkpt lat="53.8362" lon="22.97236">
        <ele>158.636944</ele>
        <time>2020-11-29T08:44:08.182Z</time>
      </trkpt>
      <trkpt lat="53.83611" lon="22.9724">
        <ele>158.542641</ele>
        <time>2020-11-29T08:44:11.144Z</time>
      </trkpt>
      <trkpt lat="53.83602" lon="22.97244">
        <ele>158.449308</ele>
        <time>2020-11-29T08:44:14.152Z</time>
      </trkpt>
      <trkpt lat="53.83592" lon="22.97249">
        <ele>158.354419</ele>
        <time>2020-11-29T08:44:17.150Z</time>
      </trkpt>
      <trkpt lat="53.83581" lon="22.97253">
        <ele>158.24201</ele>
        <time>2020-11-29T08:44:21.155Z</time>
      </trkpt>
      <trkpt lat="53.8357" lon="22.9726">
        <ele>158.128108</ele>
        <time>2020-11-29T08:44:25.178Z</time>
      </trkpt>
      <trkpt lat="53.8356" lon="22.97265">
        <ele>158.026495</ele>
        <time>2020-11-29T08:44:29.166Z</time>
      </trkpt>
      <trkpt lat="53.83551" lon="22.97268">
        <ele>157.938542</ele>
        <time>2020-11-29T08:44:34.163Z</time>
      </trkpt>
      <trkpt lat="53.83543" lon="22.97276">
        <ele>157.845347</ele>
        <time>2020-11-29T08:47:37.159Z</time>
      </trkpt>
      <trkpt lat="53.83531" lon="22.97279">
        <ele>157.73117</ele>
        <time>2020-11-29T08:47:42.182Z</time>
      </trkpt>
      <trkpt lat="53.83521" lon="22.97282">
        <ele>157.627259</ele>
        <time>2020-11-29T08:47:45.150Z</time>
      </trkpt>
      <trkpt lat="53.83509" lon="22.97287">
        <ele>157.51268</ele>
        <time>2020-11-29T08:47:48.192Z</time>
      </trkpt>
      <trkpt lat="53.83498" lon="22.97292">
        <ele>157.288628</ele>
        <time>2020-11-29T08:47:51.158Z</time>
      </trkpt>
      <trkpt lat="53.83486" lon="22.97299">
        <ele>156.989517</ele>
        <time>2020-11-29T08:47:54.142Z</time>
      </trkpt>
      <trkpt lat="53.83473" lon="22.97305">
        <ele>156.682728</ele>
        <time>2020-11-29T08:47:57.161Z</time>
      </trkpt>
      <trkpt lat="53.83462" lon="22.9731">
        <ele>156.414131</ele>
        <time>2020-11-29T08:48:00.154Z</time>
      </trkpt>
      <trkpt lat="53.83451" lon="22.97316">
        <ele>156.133491</ele>
        <time>2020-11-29T08:48:03.147Z</time>
      </trkpt>
      <trkpt lat="53.83442" lon="22.97321">
        <ele>155.919106</ele>
        <time>2020-11-29T08:48:05.158Z</time>
      </trkpt>
      <trkpt lat="53.83433" lon="22.97324">
        <ele>155.70434</ele>
        <time>2020-11-29T08:48:07.144Z</time>
      </trkpt>
      <trkpt lat="53.8342" lon="22.97331">
        <ele>155.380726</ele>
        <time>2020-11-29T08:48:10.138Z</time>
      </trkpt>
      <trkpt lat="53.8341" lon="22.97337">
        <ele>155.13862</ele>
        <time>2020-11-29T08:48:12.149Z</time>
      </trkpt>
      <trkpt lat="53.834" lon="22.97342">
        <ele>154.902268</ele>
        <time>2020-11-29T08:48:14.143Z</time>
      </trkpt>
      <trkpt lat="53.83391" lon="22.97347">
        <ele>154.680046</ele>
        <time>2020-11-29T08:48:16.198Z</time>
      </trkpt>
      <trkpt lat="53.83381" lon="22.97351">
        <ele>154.43046</ele>
        <time>2020-11-29T08:48:18.144Z</time>
      </trkpt>
      <trkpt lat="53.83371" lon="22.97354">
        <ele>154.203028</ele>
        <time>2020-11-29T08:48:20.155Z</time>
      </trkpt>
      <trkpt lat="53.83361" lon="22.97357">
        <ele>153.96972</ele>
        <time>2020-11-29T08:48:22.159Z</time>
      </trkpt>
      <trkpt lat="53.83351" lon="22.9736">
        <ele>153.734659</ele>
        <time>2020-11-29T08:48:24.187Z</time>
      </trkpt>
      <trkpt lat="53.83341" lon="22.97363">
        <ele>153.479626</ele>
        <time>2020-11-29T08:48:26.179Z</time>
      </trkpt>
      <trkpt lat="53.8333" lon="22.97366">
        <ele>153.255838</ele>
        <time>2020-11-29T08:48:28.179Z</time>
      </trkpt>
      <trkpt lat="53.83319" lon="22.97369">
        <ele>153.136894</ele>
        <time>2020-11-29T08:48:30.158Z</time>
      </trkpt>
      <trkpt lat="53.83309" lon="22.97372">
        <ele>153.017725</ele>
        <time>2020-11-29T08:48:32.200Z</time>
      </trkpt>
      <trkpt lat="53.83299" lon="22.97376">
        <ele>152.902299</ele>
        <time>2020-11-29T08:48:34.148Z</time>
      </trkpt>
      <trkpt lat="53.83289" lon="22.97379">
        <ele>152.791174</ele>
        <time>2020-11-29T08:48:36.142Z</time>
      </trkpt>
      <trkpt lat="53.8328" lon="22.97381">
        <ele>152.686457</ele>
        <time>2020-11-29T08:48:38.165Z</time>
      </trkpt>
      <trkpt lat="53.83267" lon="22.97383">
        <ele>152.542676</ele>
        <time>2020-11-29T08:48:41.155Z</time>
      </trkpt>
      <trkpt lat="53.83255" lon="22.97383">
        <ele>152.406385</ele>
        <time>2020-11-29T08:48:44.141Z</time>
      </trkpt>
      <trkpt lat="53.83243" lon="22.9738">
        <ele>152.267825</ele>
        <time>2020-11-29T08:48:47.148Z</time>
      </trkpt>
      <trkpt lat="53.8323" lon="22.97375">
        <ele>152.122332</ele>
        <time>2020-11-29T08:48:50.134Z</time>
      </trkpt>
      <trkpt lat="53.83222" lon="22.97369">
        <ele>152.021791</ele>
        <time>2020-11-29T08:48:52.148Z</time>
      </trkpt>
      <trkpt lat="53.8321" lon="22.9736">
        <ele>151.874393</ele>
        <time>2020-11-29T08:48:55.165Z</time>
      </trkpt>
      <trkpt lat="53.83199" lon="22.97349">
        <ele>151.741463</ele>
        <time>2020-11-29T08:48:58.183Z</time>
      </trkpt>
      <trkpt lat="53.83189" lon="22.97339">
        <ele>151.611423</ele>
        <time>2020-11-29T08:49:01.148Z</time>
      </trkpt>
      <trkpt lat="53.8318" lon="22.97332">
        <ele>151.499498</ele>
        <time>2020-11-29T08:49:04.167Z</time>
      </trkpt>
      <trkpt lat="53.83171" lon="22.97325">
        <ele>151.387374</ele>
        <time>2020-11-29T08:49:07.162Z</time>
      </trkpt>
      <trkpt lat="53.83163" lon="22.97317">
        <ele>151.284907</ele>
        <time>2020-11-29T08:49:10.163Z</time>
      </trkpt>
      <trkpt lat="53.83153" lon="22.97307">
        <ele>151.436834</ele>
        <time>2020-11-29T08:49:14.141Z</time>
      </trkpt>
      <trkpt lat="53.83143" lon="22.97298">
        <ele>151.627222</ele>
        <time>2020-11-29T08:49:18.158Z</time>
      </trkpt>
      <trkpt lat="53.83134" lon="22.9729">
        <ele>151.787656</ele>
        <time>2020-11-29T08:49:21.144Z</time>
      </trkpt>
      <trkpt lat="53.83125" lon="22.97282">
        <ele>151.945917</ele>
        <time>2020-11-29T08:49:24.166Z</time>
      </trkpt>
      <trkpt lat="53.83116" lon="22.97276">
        <ele>152.111714</ele>
        <time>2020-11-29T08:49:27.149Z</time>
      </trkpt>
      <trkpt lat="53.83107" lon="22.97268">
        <ele>152.279414</ele>
        <time>2020-11-29T08:49:30.151Z</time>
      </trkpt>
      <trkpt lat="53.83097" lon="22.97259">
        <ele>152.454912</ele>
        <time>2020-11-29T08:49:33.159Z</time>
      </trkpt>
      <trkpt lat="53.83087" lon="22.97249">
        <ele>152.640637</ele>
        <time>2020-11-29T08:49:36.139Z</time>
      </trkpt>
      <trkpt lat="53.83076" lon="22.9724">
        <ele>152.83324</ele>
        <time>2020-11-29T08:49:39.155Z</time>
      </trkpt>
      <trkpt lat="53.83066" lon="22.97231">
        <ele>153.01387</ele>
        <time>2020-11-29T08:49:42.182Z</time>
      </trkpt>
      <trkpt lat="53.83057" lon="22.97221">
        <ele>153.195596</ele>
        <time>2020-11-29T08:49:45.161Z</time>
      </trkpt>
      <trkpt lat="53.83047" lon="22.97213">
        <ele>153.363679</ele>
        <time>2020-11-29T08:49:48.151Z</time>
      </trkpt>
      <trkpt lat="53.83037" lon="22.97205">
        <ele>153.535252</ele>
        <time>2020-11-29T08:49:51.207Z</time>
      </trkpt>
      <trkpt lat="53.83026" lon="22.97198">
        <ele>153.736392</ele>
        <time>2020-11-29T08:49:54.161Z</time>
      </trkpt>
      <trkpt lat="53.83015" lon="22.97188">
        <ele>153.936593</ele>
        <time>2020-11-29T08:49:57.149Z</time>
      </trkpt>
      <trkpt lat="53.83003" lon="22.97178">
        <ele>154.142826</ele>
        <time>2020-11-29T08:50:00.168Z</time>
      </trkpt>
      <trkpt lat="53.82994" lon="22.97168">
        <ele>154.361491</ele>
        <time>2020-11-29T08:50:03.149Z</time>
      </trkpt>
      <trkpt lat="53.82983" lon="22.97158">
        <ele>154.589298</ele>
        <time>2020-11-29T08:50:06.145Z</time>
      </trkpt>
      <trkpt lat="53.82973" lon="22.9715">
        <ele>154.816488</ele>
        <time>2020-11-29T08:50:09.147Z</time>
      </trkpt>
      <trkpt lat="53.82962" lon="22.97143">
        <ele>155.032067</ele>
        <time>2020-11-29T08:50:12.158Z</time>
      </trkpt>
      <trkpt lat="53.82951" lon="22.97136">
        <ele>155.260322</ele>
        <time>2020-11-29T08:50:15.145Z</time>
      </trkpt>
      <trkpt lat="53.82941" lon="22.97127">
        <ele>155.495141</ele>
        <time>2020-11-29T08:50:18.158Z</time>
      </trkpt>
      <trkpt lat="53.82931" lon="22.97119">
        <ele>155.706955</ele>
        <time>2020-11-29T08:50:21.147Z</time>
      </trkpt>
      <trkpt lat="53.82923" lon="22.97109">
        <ele>155.894231</ele>
        <time>2020-11-29T08:50:25.146Z</time>
      </trkpt>
      <trkpt lat="53.82915" lon="22.971">
        <ele>156.086683</ele>
        <time>2020-11-29T08:50:29.160Z</time>
      </trkpt>
      <trkpt lat="53.82906" lon="22.97094">
        <ele>156.270525</ele>
        <time>2020-11-29T08:50:33.144Z</time>
      </trkpt>
      <trkpt lat="53.82896" lon="22.97087">
        <ele>156.474118</ele>
        <time>2020-11-29T08:50:38.163Z</time>
      </trkpt>
      <trkpt lat="53.82866" lon="22.97059">
        <ele>157.133842</ele>
        <time>2020-11-29T08:59:54.159Z</time>
      </trkpt>
      <trkpt lat="53.82858" lon="22.97052">
        <ele>157.323985</ele>
        <time>2020-11-29T08:59:58.162Z</time>
      </trkpt>
      <trkpt lat="53.82849" lon="22.97044">
        <ele>157.514657</ele>
        <time>2020-11-29T09:00:02.154Z</time>
      </trkpt>
      <trkpt lat="53.82839" lon="22.97034">
        <ele>157.477307</ele>
        <time>2020-11-29T09:00:06.150Z</time>
      </trkpt>
      <trkpt lat="53.82829" lon="22.97026">
        <ele>157.03508</ele>
        <time>2020-11-29T09:00:10.147Z</time>
      </trkpt>
      <trkpt lat="53.82821" lon="22.97017">
        <ele>156.645769</ele>
        <time>2020-11-29T09:00:14.161Z</time>
      </trkpt>
      <trkpt lat="53.82813" lon="22.97009">
        <ele>156.263826</ele>
        <time>2020-11-29T09:00:18.161Z</time>
      </trkpt>
      <trkpt lat="53.82803" lon="22.97003">
        <ele>155.835025</ele>
        <time>2020-11-29T09:00:22.172Z</time>
      </trkpt>
      <trkpt lat="53.82794" lon="22.96995">
        <ele>155.411448</ele>
        <time>2020-11-29T09:00:26.162Z</time>
      </trkpt>
      <trkpt lat="53.82784" lon="22.96988">
        <ele>154.978443</ele>
        <time>2020-11-29T09:00:31.152Z</time>
      </trkpt>
      <trkpt lat="53.82775" lon="22.96979">
        <ele>154.592283</ele>
        <time>2020-11-29T09:00:39.154Z</time>
      </trkpt>
      <trkpt lat="53.82794" lon="22.97001">
        <ele>153.686589</ele>
        <time>2020-11-29T09:15:19.976Z</time>
      </trkpt>
      <trkpt lat="53.82801" lon="22.9701">
        <ele>153.323225</ele>
        <time>2020-11-29T09:15:30.996Z</time>
      </trkpt>
      <trkpt lat="53.82809" lon="22.97017">
        <ele>152.956687</ele>
        <time>2020-11-29T09:15:41.952Z</time>
      </trkpt>
      <trkpt lat="53.82818" lon="22.97023">
        <ele>152.564395</ele>
        <time>2020-11-29T09:15:54.953Z</time>
      </trkpt>
      <trkpt lat="53.82828" lon="22.97027">
        <ele>152.158871</ele>
        <time>2020-11-29T09:16:02.970Z</time>
      </trkpt>
      <trkpt lat="53.82837" lon="22.97032">
        <ele>151.773639</ele>
        <time>2020-11-29T09:16:09.969Z</time>
      </trkpt>
      <trkpt lat="53.82846" lon="22.97038">
        <ele>151.413688</ele>
        <time>2020-11-29T09:16:17.994Z</time>
      </trkpt>
      <trkpt lat="53.82854" lon="22.97046">
        <ele>151.016996</ele>
        <time>2020-11-29T09:16:30.963Z</time>
      </trkpt>
      <trkpt lat="53.82863" lon="22.97053">
        <ele>150.625741</ele>
        <time>2020-11-29T09:16:38.973Z</time>
      </trkpt>
      <trkpt lat="53.82868" lon="22.97066">
        <ele>150.444119</ele>
        <time>2020-11-29T09:16:48.972Z</time>
      </trkpt>
      <trkpt lat="53.82876" lon="22.97074">
        <ele>150.492114</ele>
        <time>2020-11-29T09:16:59.963Z</time>
      </trkpt>
      <trkpt lat="53.82885" lon="22.97081">
        <ele>150.540493</ele>
        <time>2020-11-29T09:17:06.967Z</time>
      </trkpt>
      <trkpt lat="53.82896" lon="22.97092">
        <ele>150.60871</ele>
        <time>2020-11-29T09:17:41.978Z</time>
      </trkpt>
      <trkpt lat="53.82904" lon="22.971">
        <ele>150.657863</ele>
        <time>2020-11-29T09:17:52.968Z</time>
      </trkpt>
      <trkpt lat="53.82915" lon="22.97108">
        <ele>150.717127</ele>
        <time>2020-11-29T09:18:11.996Z</time>
      </trkpt>
      <trkpt lat="53.82923" lon="22.97114">
        <ele>150.764518</ele>
        <time>2020-11-29T09:18:20.959Z</time>
      </trkpt>
      <trkpt lat="53.82932" lon="22.97123">
        <ele>150.818974</ele>
        <time>2020-11-29T09:19:18.971Z</time>
      </trkpt>
      <trkpt lat="53.82941" lon="22.9713">
        <ele>150.869501</ele>
        <time>2020-11-29T09:19:32.981Z</time>
      </trkpt>
      <trkpt lat="53.82949" lon="22.97137">
        <ele>150.918883</ele>
        <time>2020-11-29T09:19:42.968Z</time>
      </trkpt>
      <trkpt lat="53.82957" lon="22.97145">
        <ele>150.968814</ele>
        <time>2020-11-29T09:19:51.964Z</time>
      </trkpt>
      <trkpt lat="53.82966" lon="22.97152">
        <ele>151.019556</ele>
        <time>2020-11-29T09:20:00.983Z</time>
      </trkpt>
      <trkpt lat="53.82974" lon="22.9716">
        <ele>151.067227</ele>
        <time>2020-11-29T09:20:10.951Z</time>
      </trkpt>
      <trkpt lat="53.82983" lon="22.97166">
        <ele>151.116407</ele>
        <time>2020-11-29T09:20:20.969Z</time>
      </trkpt>
      <trkpt lat="53.82992" lon="22.97174">
        <ele>151.168944</ele>
        <time>2020-11-29T09:20:33.972Z</time>
      </trkpt>
      <trkpt lat="53.83001" lon="22.9718">
        <ele>151.21849</ele>
        <time>2020-11-29T09:20:42.970Z</time>
      </trkpt>
      <trkpt lat="53.83009" lon="22.97187">
        <ele>151.266135</ele>
        <time>2020-11-29T09:20:51.978Z</time>
      </trkpt>
      <trkpt lat="53.83017" lon="22.97196">
        <ele>151.316191</ele>
        <time>2020-11-29T09:21:03.976Z</time>
      </trkpt>
      <trkpt lat="53.83025" lon="22.97204">
        <ele>151.367997</ele>
        <time>2020-11-29T09:21:14.968Z</time>
      </trkpt>
      <trkpt lat="53.83034" lon="22.97212">
        <ele>151.429798</ele>
        <time>2020-11-29T09:21:23.962Z</time>
      </trkpt>
      <trkpt lat="53.83042" lon="22.97218">
        <ele>151.489088</ele>
        <time>2020-11-29T09:21:32.964Z</time>
      </trkpt>
      <trkpt lat="53.83051" lon="22.97226">
        <ele>151.547172</ele>
        <time>2020-11-29T09:21:39.960Z</time>
      </trkpt>
      <trkpt lat="53.83058" lon="22.97234">
        <ele>151.604004</ele>
        <time>2020-11-29T09:21:47.962Z</time>
      </trkpt>
      <trkpt lat="53.83066" lon="22.97241">
        <ele>151.662318</ele>
        <time>2020-11-29T09:21:56.979Z</time>
      </trkpt>
      <trkpt lat="53.83075" lon="22.97247">
        <ele>151.721715</ele>
        <time>2020-11-29T09:22:04.966Z</time>
      </trkpt>
      <trkpt lat="53.83083" lon="22.97255">
        <ele>151.780152</ele>
        <time>2020-11-29T09:22:13.959Z</time>
      </trkpt>
      <trkpt lat="53.83092" lon="22.97262">
        <ele>151.840853</ele>
        <time>2020-11-29T09:22:22.990Z</time>
      </trkpt>
      <trkpt lat="53.831" lon="22.97268">
        <ele>151.899961</ele>
        <time>2020-11-29T09:22:31.965Z</time>
      </trkpt>
      <trkpt lat="53.83109" lon="22.97275">
        <ele>151.961122</ele>
        <time>2020-11-29T09:22:41.950Z</time>
      </trkpt>
      <trkpt lat="53.83117" lon="22.97284">
        <ele>152.022011</ele>
        <time>2020-11-29T09:22:52.962Z</time>
      </trkpt>
      <trkpt lat="53.83125" lon="22.97293">
        <ele>152.083839</ele>
        <time>2020-11-29T09:23:01.972Z</time>
      </trkpt>
      <trkpt lat="53.83134" lon="22.97303">
        <ele>152.148002</ele>
        <time>2020-11-29T09:23:11.948Z</time>
      </trkpt>
      <trkpt lat="53.83143" lon="22.9731">
        <ele>152.211177</ele>
        <time>2020-11-29T09:23:19.967Z</time>
      </trkpt>
      <trkpt lat="53.8315" lon="22.9732">
        <ele>152.268938</ele>
        <time>2020-11-29T09:23:31.964Z</time>
      </trkpt>
      <trkpt lat="53.83159" lon="22.97327">
        <ele>152.330678</ele>
        <time>2020-11-29T09:23:41.974Z</time>
      </trkpt>
      <trkpt lat="53.83166" lon="22.97336">
        <ele>152.389375</ele>
        <time>2020-11-29T09:23:49.968Z</time>
      </trkpt>
      <trkpt lat="53.83175" lon="22.97341">
        <ele>152.448667</ele>
        <time>2020-11-29T09:23:57.972Z</time>
      </trkpt>
      <trkpt lat="53.83184" lon="22.97348">
        <ele>152.616878</ele>
        <time>2020-11-29T09:24:06.951Z</time>
      </trkpt>
      <trkpt lat="53.83192" lon="22.97356">
        <ele>153.252319</ele>
        <time>2020-11-29T09:24:16.967Z</time>
      </trkpt>
      <trkpt lat="53.83201" lon="22.97361">
        <ele>153.851741</ele>
        <time>2020-11-29T09:24:26.963Z</time>
      </trkpt>
      <trkpt lat="53.83209" lon="22.97369">
        <ele>154.476019</ele>
        <time>2020-11-29T09:24:37.966Z</time>
      </trkpt>
      <trkpt lat="53.83218" lon="22.97375">
        <ele>155.059816</ele>
        <time>2020-11-29T09:24:47.968Z</time>
      </trkpt>
      <trkpt lat="53.83226" lon="22.97382">
        <ele>155.661036</ele>
        <time>2020-11-29T09:24:58.964Z</time>
      </trkpt>
      <trkpt lat="53.83236" lon="22.97387">
        <ele>156.309651</ele>
        <time>2020-11-29T09:25:07.984Z</time>
      </trkpt>
      <trkpt lat="53.83245" lon="22.97393">
        <ele>156.938443</ele>
        <time>2020-11-29T09:25:18.983Z</time>
      </trkpt>
      <trkpt lat="53.83255" lon="22.97393">
        <ele>157.584546</ele>
        <time>2020-11-29T09:25:29.999Z</time>
      </trkpt>
      <trkpt lat="53.83264" lon="22.97389">
        <ele>158.197949</ele>
        <time>2020-11-29T09:25:37.978Z</time>
      </trkpt>
      <trkpt lat="53.83273" lon="22.97387">
        <ele>158.796501</ele>
        <time>2020-11-29T09:25:45.971Z</time>
      </trkpt>
      <trkpt lat="53.83282" lon="22.97387">
        <ele>159.384508</ele>
        <time>2020-11-29T09:25:53.968Z</time>
      </trkpt>
      <trkpt lat="53.83291" lon="22.97382">
        <ele>159.981549</ele>
        <time>2020-11-29T09:26:05.969Z</time>
      </trkpt>
      <trkpt lat="53.83301" lon="22.97379">
        <ele>160.63809</ele>
        <time>2020-11-29T09:26:17.961Z</time>
      </trkpt>
      <trkpt lat="53.83311" lon="22.97377">
        <ele>161.281981</ele>
        <time>2020-11-29T09:26:27.961Z</time>
      </trkpt>
      <trkpt lat="53.83321" lon="22.97375">
        <ele>161.907114</ele>
        <time>2020-11-29T09:26:37.981Z</time>
      </trkpt>
      <trkpt lat="53.8333" lon="22.9737">
        <ele>162.532793</ele>
        <time>2020-11-29T09:26:48.974Z</time>
      </trkpt>
      <trkpt lat="53.8334" lon="22.97368">
        <ele>163.162985</ele>
        <time>2020-11-29T09:26:56.969Z</time>
      </trkpt>
      <trkpt lat="53.83349" lon="22.97366">
        <ele>163.789685</ele>
        <time>2020-11-29T09:27:05.968Z</time>
      </trkpt>
      <trkpt lat="53.83359" lon="22.97366">
        <ele>164.149369</ele>
        <time>2020-11-29T09:27:13.973Z</time>
      </trkpt>
      <trkpt lat="53.83368" lon="22.97364">
        <ele>164.229909</ele>
        <time>2020-11-29T09:27:21.959Z</time>
      </trkpt>
      <trkpt lat="53.83377" lon="22.97359">
        <ele>164.314005</ele>
        <time>2020-11-29T09:27:31.993Z</time>
      </trkpt>
      <trkpt lat="53.83385" lon="22.97354">
        <ele>164.39658</ele>
        <time>2020-11-29T09:27:42.964Z</time>
      </trkpt>
      <trkpt lat="53.83394" lon="22.97349">
        <ele>164.476698</ele>
        <time>2020-11-29T09:27:51.972Z</time>
      </trkpt>
      <trkpt lat="53.83402" lon="22.97341">
        <ele>164.558538</ele>
        <time>2020-11-29T09:28:02.984Z</time>
      </trkpt>
      <trkpt lat="53.83412" lon="22.9734">
        <ele>164.647721</ele>
        <time>2020-11-29T09:28:15.967Z</time>
      </trkpt>
      <trkpt lat="53.83422" lon="22.97336">
        <ele>164.734902</ele>
        <time>2020-11-29T09:28:23.974Z</time>
      </trkpt>
      <trkpt lat="53.83431" lon="22.97332">
        <ele>164.817889</ele>
        <time>2020-11-29T09:28:33.956Z</time>
      </trkpt>
      <trkpt lat="53.8344" lon="22.9733">
        <ele>164.900261</ele>
        <time>2020-11-29T09:28:40.968Z</time>
      </trkpt>
      <trkpt lat="53.83449" lon="22.97324">
        <ele>164.9841</ele>
        <time>2020-11-29T09:28:51.981Z</time>
      </trkpt>
      <trkpt lat="53.83458" lon="22.97318">
        <ele>165.072356</ele>
        <time>2020-11-29T09:29:02.965Z</time>
      </trkpt>
      <trkpt lat="53.83468" lon="22.97317">
        <ele>165.153751</ele>
        <time>2020-11-29T09:29:12.963Z</time>
      </trkpt>
      <trkpt lat="53.83477" lon="22.9731">
        <ele>165.24199</ele>
        <time>2020-11-29T09:29:21.972Z</time>
      </trkpt>
      <trkpt lat="53.83485" lon="22.97303">
        <ele>165.322665</ele>
        <time>2020-11-29T09:29:29.997Z</time>
      </trkpt>
      <trkpt lat="53.83494" lon="22.97299">
        <ele>165.401706</ele>
        <time>2020-11-29T09:29:37.982Z</time>
      </trkpt>
      <trkpt lat="53.83503" lon="22.97295">
        <ele>165.483115</ele>
        <time>2020-11-29T09:29:46.950Z</time>
      </trkpt>
      <trkpt lat="53.83512" lon="22.9729">
        <ele>165.570411</ele>
        <time>2020-11-29T09:29:57.966Z</time>
      </trkpt>
      <trkpt lat="53.83521" lon="22.97285">
        <ele>165.652403</ele>
        <time>2020-11-29T09:30:05.965Z</time>
      </trkpt>
      <trkpt lat="53.8353" lon="22.97284">
        <ele>165.617987</ele>
        <time>2020-11-29T09:30:14.966Z</time>
      </trkpt>
      <trkpt lat="53.8354" lon="22.97279">
        <ele>165.46217</ele>
        <time>2020-11-29T09:30:25.987Z</time>
      </trkpt>
      <trkpt lat="53.83549" lon="22.97273">
        <ele>165.301037</ele>
        <time>2020-11-29T09:30:35.968Z</time>
      </trkpt>
      <trkpt lat="53.83558" lon="22.97269">
        <ele>165.14707</ele>
        <time>2020-11-29T09:30:44.961Z</time>
      </trkpt>
      <trkpt lat="53.83567" lon="22.97265">
        <ele>164.989931</ele>
        <time>2020-11-29T09:30:55.987Z</time>
      </trkpt>
      <trkpt lat="53.83576" lon="22.97259">
        <ele>164.82525</ele>
        <time>2020-11-29T09:31:06.966Z</time>
      </trkpt>
      <trkpt lat="53.83585" lon="22.97263">
        <ele>164.676416</ele>
        <time>2020-11-29T09:31:12.981Z</time>
      </trkpt>
      <trkpt lat="53.83594" lon="22.97263">
        <ele>164.528226</ele>
        <time>2020-11-29T09:31:20.011Z</time>
      </trkpt>
      <trkpt lat="53.83603" lon="22.97257">
        <ele>164.368142</ele>
        <time>2020-11-29T09:31:29.981Z</time>
      </trkpt>
      <trkpt lat="53.83612" lon="22.9725">
        <ele>164.209146</ele>
        <time>2020-11-29T09:31:39.969Z</time>
      </trkpt>
      <trkpt lat="53.83621" lon="22.97244">
        <ele>164.05449</ele>
        <time>2020-11-29T09:31:51.980Z</time>
      </trkpt>
      <trkpt lat="53.83629" lon="22.97237">
        <ele>163.898883</ele>
        <time>2020-11-29T09:32:00.962Z</time>
      </trkpt>
      <trkpt lat="53.83637" lon="22.97228">
        <ele>163.746344</ele>
        <time>2020-11-29T09:32:12.000Z</time>
      </trkpt>
      <trkpt lat="53.83646" lon="22.97222">
        <ele>163.578014</ele>
        <time>2020-11-29T09:32:21.982Z</time>
      </trkpt>
      <trkpt lat="53.83656" lon="22.97219">
        <ele>163.416726</ele>
        <time>2020-11-29T09:32:30.981Z</time>
      </trkpt>
      <trkpt lat="53.83665" lon="22.97216">
        <ele>163.266559</ele>
        <time>2020-11-29T09:32:42.004Z</time>
      </trkpt>
      <trkpt lat="53.83673" lon="22.97207">
        <ele>163.107077</ele>
        <time>2020-11-29T09:32:51.965Z</time>
      </trkpt>
      <trkpt lat="53.83682" lon="22.97213">
        <ele>162.951607</ele>
        <time>2020-11-29T09:33:01.969Z</time>
      </trkpt>
      <trkpt lat="53.83688" lon="22.97226">
        <ele>162.79226</ele>
        <time>2020-11-29T09:33:07.972Z</time>
      </trkpt>
      <trkpt lat="53.83691" lon="22.97241">
        <ele>162.739135</ele>
        <time>2020-11-29T09:33:16.964Z</time>
      </trkpt>
      <trkpt lat="53.83696" lon="22.97256">
        <ele>162.748349</ele>
        <time>2020-11-29T09:33:25.978Z</time>
      </trkpt>
      <trkpt lat="53.83704" lon="22.97264">
        <ele>162.757419</ele>
        <time>2020-11-29T09:33:34.975Z</time>
      </trkpt>
      <trkpt lat="53.83713" lon="22.97272">
        <ele>162.766347</ele>
        <time>2020-11-29T09:33:42.960Z</time>
      </trkpt>
      <trkpt lat="53.83722" lon="22.97267">
        <ele>162.775133</ele>
        <time>2020-11-29T09:33:51.959Z</time>
      </trkpt>
      <trkpt lat="53.83731" lon="22.97265">
        <ele>162.784085</ele>
        <time>2020-11-29T09:34:02.966Z</time>
      </trkpt>
      <trkpt lat="53.83741" lon="22.97266">
        <ele>162.793333</ele>
        <time>2020-11-29T09:34:13.001Z</time>
      </trkpt>
      <trkpt lat="53.83749" lon="22.97275">
        <ele>162.802262</ele>
        <time>2020-11-29T09:34:18.974Z</time>
      </trkpt>
      <trkpt lat="53.83758" lon="22.97279">
        <ele>162.810639</ele>
        <time>2020-11-29T09:34:25.970Z</time>
      </trkpt>
      <trkpt lat="53.83766" lon="22.97287">
        <ele>162.819594</ele>
        <time>2020-11-29T09:34:34.970Z</time>
      </trkpt>
      <trkpt lat="53.83774" lon="22.97295">
        <ele>162.828183</ele>
        <time>2020-11-29T09:34:43.955Z</time>
      </trkpt>
      <trkpt lat="53.83781" lon="22.97306">
        <ele>162.836815</ele>
        <time>2020-11-29T09:34:52.971Z</time>
      </trkpt>
      <trkpt lat="53.83789" lon="22.97314">
        <ele>162.845511</ele>
        <time>2020-11-29T09:35:00.961Z</time>
      </trkpt>
      <trkpt lat="53.83795" lon="22.97326">
        <ele>162.8543</ele>
        <time>2020-11-29T09:35:10.975Z</time>
      </trkpt>
      <trkpt lat="53.83803" lon="22.97335">
        <ele>162.86287</ele>
        <time>2020-11-29T09:35:19.967Z</time>
      </trkpt>
      <trkpt lat="53.83811" lon="22.97343">
        <ele>162.871744</ele>
        <time>2020-11-29T09:35:30.021Z</time>
      </trkpt>
      <trkpt lat="53.83819" lon="22.97354">
        <ele>162.880892</ele>
        <time>2020-11-29T09:35:38.980Z</time>
      </trkpt>
      <trkpt lat="53.83827" lon="22.97363">
        <ele>162.889941</ele>
        <time>2020-11-29T09:35:47.990Z</time>
      </trkpt>
      <trkpt lat="53.83836" lon="22.97367">
        <ele>162.89871</ele>
        <time>2020-11-29T09:35:54.972Z</time>
      </trkpt>
      <trkpt lat="53.83845" lon="22.97373">
        <ele>162.776087</ele>
        <time>2020-11-29T09:36:05.961Z</time>
      </trkpt>
      <trkpt lat="53.83853" lon="22.9738">
        <ele>162.625708</ele>
        <time>2020-11-29T09:36:17.975Z</time>
      </trkpt>
      <trkpt lat="53.83861" lon="22.97389">
        <ele>162.469444</ele>
        <time>2020-11-29T09:36:31.969Z</time>
      </trkpt>
      <trkpt lat="53.83868" lon="22.97399">
        <ele>162.309914</ele>
        <time>2020-11-29T09:36:41.971Z</time>
      </trkpt>
      <trkpt lat="53.83875" lon="22.97409">
        <ele>162.152243</ele>
        <time>2020-11-29T09:36:50.974Z</time>
      </trkpt>
      <trkpt lat="53.83882" lon="22.97421">
        <ele>161.989145</ele>
        <time>2020-11-29T09:36:58.972Z</time>
      </trkpt>
      <trkpt lat="53.83891" lon="22.97429">
        <ele>161.82572</ele>
        <time>2020-11-29T09:37:06.972Z</time>
      </trkpt>
      <trkpt lat="53.839" lon="22.97435">
        <ele>161.669975</ele>
        <time>2020-11-29T09:37:13.961Z</time>
      </trkpt>
      <trkpt lat="53.83909" lon="22.9744">
        <ele>161.504309</ele>
        <time>2020-11-29T09:37:21.968Z</time>
      </trkpt>
      <trkpt lat="53.83918" lon="22.97449">
        <ele>161.337988</ele>
        <time>2020-11-29T09:37:29.979Z</time>
      </trkpt>
      <trkpt lat="53.83927" lon="22.97452">
        <ele>161.186943</ele>
        <time>2020-11-29T09:37:37.960Z</time>
      </trkpt>
      <trkpt lat="53.83932" lon="22.97438">
        <ele>161.017831</ele>
        <time>2020-11-29T09:37:49.974Z</time>
      </trkpt>
      <trkpt lat="53.83938" lon="22.97426">
        <ele>160.859714</ele>
        <time>2020-11-29T09:37:56.972Z</time>
      </trkpt>
      <trkpt lat="53.83944" lon="22.97414">
        <ele>160.707001</ele>
        <time>2020-11-29T09:38:04.952Z</time>
      </trkpt>
      <trkpt lat="53.83951" lon="22.97402">
        <ele>160.543457</ele>
        <time>2020-11-29T09:38:13.964Z</time>
      </trkpt>
      <trkpt lat="53.83955" lon="22.97387">
        <ele>160.385799</ele>
        <time>2020-11-29T09:38:24.982Z</time>
      </trkpt>
      <trkpt lat="53.83961" lon="22.97375">
        <ele>160.228951</ele>
        <time>2020-11-29T09:38:33.985Z</time>
      </trkpt>
      <trkpt lat="53.83969" lon="22.97364">
        <ele>160.062444</ele>
        <time>2020-11-29T09:38:42.962Z</time>
      </trkpt>
      <trkpt lat="53.83977" lon="22.97354">
        <ele>159.904381</ele>
        <time>2020-11-29T09:38:51.974Z</time>
      </trkpt>
      <trkpt lat="53.83983" lon="22.97343">
        <ele>159.904381</ele>
        <time>2020-11-29T09:39:00.972Z</time>
      </trkpt>
      <trkpt lat="53.8399" lon="22.97331">
        <ele>159.904381</ele>
        <time>2020-11-29T09:39:09.966Z</time>
      </trkpt>
      <trkpt lat="53.83997" lon="22.97321">
        <ele>159.904381</ele>
        <time>2020-11-29T09:39:17.984Z</time>
      </trkpt>
      <trkpt lat="53.84003" lon="22.97308">
        <ele>159.904381</ele>
        <time>2020-11-29T09:39:25.965Z</time>
      </trkpt>
      <trkpt lat="53.84009" lon="22.97295">
        <ele>159.904381</ele>
        <time>2020-11-29T09:39:33.955Z</time>
      </trkpt>
      <trkpt lat="53.84015" lon="22.97282">
        <ele>159.904381</ele>
        <time>2020-11-29T09:39:42.969Z</time>
      </trkpt>
      <trkpt lat="53.84021" lon="22.97268">
        <ele>159.904381</ele>
        <time>2020-11-29T09:39:52.008Z</time>
      </trkpt>
      <trkpt lat="53.84027" lon="22.97257">
        <ele>159.904381</ele>
        <time>2020-11-29T09:40:01.991Z</time>
      </trkpt>
      <trkpt lat="53.84035" lon="22.97263">
        <ele>159.904381</ele>
        <time>2020-11-29T09:40:11.968Z</time>
      </trkpt>
      <trkpt lat="53.84043" lon="22.97273">
        <ele>159.904381</ele>
        <time>2020-11-29T09:40:19.972Z</time>
      </trkpt>
      <trkpt lat="53.84051" lon="22.97282">
        <ele>159.904381</ele>
        <time>2020-11-29T09:40:28.989Z</time>
      </trkpt>
      <trkpt lat="53.84059" lon="22.97292">
        <ele>159.904381</ele>
        <time>2020-11-29T09:40:37.975Z</time>
      </trkpt>
      <trkpt lat="53.84067" lon="22.97301">
        <ele>159.904381</ele>
        <time>2020-11-29T09:40:46.969Z</time>
      </trkpt>
      <trkpt lat="53.84076" lon="22.97302">
        <ele>159.904381</ele>
        <time>2020-11-29T09:40:55.997Z</time>
      </trkpt>
      <trkpt lat="53.84085" lon="22.97302">
        <ele>159.904381</ele>
        <time>2020-11-29T09:41:07.989Z</time>
      </trkpt>
      <trkpt lat="53.84091" lon="22.9729">
        <ele>159.904381</ele>
        <time>2020-11-29T09:41:17.968Z</time>
      </trkpt>
      <trkpt lat="53.84101" lon="22.9727">
        <ele>159.904381</ele>
        <time>2020-11-29T09:41:59.977Z</time>
      </trkpt>
      <trkpt lat="53.84106" lon="22.97257">
        <ele>159.904381</ele>
        <time>2020-11-29T09:42:08.994Z</time>
      </trkpt>
      <trkpt lat="53.84113" lon="22.97247">
        <ele>159.904381</ele>
        <time>2020-11-29T09:42:19.973Z</time>
      </trkpt>
      <trkpt lat="53.84122" lon="22.97253">
        <ele>159.904381</ele>
        <time>2020-11-29T09:42:30.975Z</time>
      </trkpt>
      <trkpt lat="53.84124" lon="22.97268">
        <ele>159.904381</ele>
        <time>2020-11-29T09:42:41.959Z</time>
      </trkpt>
      <trkpt lat="53.84133" lon="22.97275">
        <ele>159.904381</ele>
        <time>2020-11-29T09:42:52.973Z</time>
      </trkpt>
      <trkpt lat="53.8414" lon="22.97285">
        <ele>159.904381</ele>
        <time>2020-11-29T09:43:01.984Z</time>
      </trkpt>
      <trkpt lat="53.84142" lon="22.97304">
        <ele>159.904381</ele>
        <time>2020-11-29T09:43:36.981Z</time>
      </trkpt>
      <trkpt lat="53.84137" lon="22.97318">
        <ele>159.904381</ele>
        <time>2020-11-29T09:43:45.989Z</time>
      </trkpt>
      <trkpt lat="53.84132" lon="22.97331">
        <ele>159.904381</ele>
        <time>2020-11-29T09:44:02.977Z</time>
      </trkpt>
      <trkpt lat="53.84135" lon="22.97312">
        <ele>159.904381</ele>
        <time>2020-11-29T10:05:23.304Z</time>
      </trkpt>
      <trkpt lat="53.84135" lon="22.97312">
        <ele>159.904381</ele>
        <time>2020-11-29T10:09:31.081Z</time>
      </trkpt>
    </trkseg>
  </trk>
</gpx>